Time;durP1;ratioP1;P1;durP2;ratioP2;P2;SDS_P1;SDS_P2;PMS_P1;PMS_P2;Temp;Humidity;BMP_temperature;BMP_pressure;BME280_temperature;BME280_humidity;BME280_pressure;Samples;Min_cycle;Max_cycle;Signal;HPM_P1;HPM_P2
2021/03/24 00:00:23;;;;;;;33.17;22.15;;;5.50;88.40;;;;;;2064432;28;20023;-80
2021/03/24 00:01:26;;;;;;;34.92;22.77;;;5.50;88.40;;;;;;2068340;28;20045;-81
2021/03/24 00:02:26;;;;;;;32.38;21.42;;;5.50;88.50;;;;;;2063532;28;20069;-81
2021/03/24 00:03:27;;;;;;;33.95;22.70;;;5.50;88.40;;;;;;2056070;28;20504;-80
2021/03/24 00:04:28;;;;;;;33.50;22.10;;;5.50;88.40;;;;;;2069597;28;20109;-80
2021/03/24 00:05:32;;;;;;;34.00;21.73;;;5.50;88.40;;;;;;2080644;28;20061;-80
2021/03/24 00:06:33;;;;;;;31.92;22.02;;;5.50;88.50;;;;;;2079425;28;20052;-80
2021/03/24 00:07:34;;;;;;;34.75;22.20;;;5.60;88.50;;;;;;2066754;28;20034;-81
2021/03/24 00:08:34;;;;;;;35.25;22.05;;;5.60;88.50;;;;;;2072183;28;20470;-80
2021/03/24 00:09:35;;;;;;;35.22;22.73;;;5.50;88.40;;;;;;2070470;28;20053;-81
2021/03/24 00:10:37;;;;;;;32.70;22.15;;;5.50;88.40;;;;;;2066393;28;20023;-80
2021/03/24 00:11:37;;;;;;;34.15;22.42;;;5.50;88.40;;;;;;2072493;28;20400;-81
2021/03/24 00:12:38;;;;;;;33.35;22.05;;;5.50;88.40;;;;;;2080730;28;20022;-81
2021/03/24 00:13:39;;;;;;;35.42;22.48;;;5.60;88.50;;;;;;2072443;28;20045;-81
2021/03/24 00:14:40;;;;;;;33.75;22.13;;;5.50;88.40;;;;;;2072156;28;20477;-81
2021/03/24 00:15:40;;;;;;;33.70;22.73;;;5.50;88.40;;;;;;2066185;28;20121;-81
2021/03/24 00:16:41;;;;;;;35.15;22.40;;;5.50;88.50;;;;;;2071921;28;20022;-81
2021/03/24 00:17:42;;;;;;;35.15;23.05;;;5.50;88.50;;;;;;2072655;28;20034;-81
2021/03/24 00:18:42;;;;;;;38.92;22.92;;;5.50;88.60;;;;;;2064371;28;20034;-81
2021/03/24 00:19:43;;;;;;;35.75;22.10;;;5.50;88.60;;;;;;2072385;28;20121;-81
2021/03/24 00:20:45;;;;;;;34.28;22.23;;;5.50;88.60;;;;;;2079806;28;20511;-81
2021/03/24 00:21:45;;;;;;;34.78;22.75;;;5.50;88.70;;;;;;2077251;28;20068;-81
2021/03/24 00:22:46;;;;;;;35.08;21.88;;;5.40;88.70;;;;;;2080654;28;20104;-81
2021/03/24 00:23:47;;;;;;;35.15;22.65;;;5.40;88.70;;;;;;2063258;28;20129;-80
2021/03/24 00:24:47;;;;;;;34.38;22.05;;;5.40;88.70;;;;;;2072464;28;20453;-81
2021/03/24 00:25:48;;;;;;;36.70;23.38;;;5.40;88.70;;;;;;2071150;28;20175;-80
2021/03/24 00:26:49;;;;;;;34.17;22.90;;;5.40;88.80;;;;;;2071820;28;20022;-81
2021/03/24 00:27:51;;;;;;;35.47;23.17;;;5.40;88.80;;;;;;2080538;28;20063;-80
2021/03/24 00:28:53;;;;;;;34.67;22.63;;;5.40;88.80;;;;;;2072101;28;20388;-80
2021/03/24 00:29:55;;;;;;;34.75;23.85;;;5.40;88.90;;;;;;2072498;28;20037;-80
2021/03/24 00:30:56;;;;;;;35.65;22.88;;;5.40;88.90;;;;;;2065285;28;20014;-80
2021/03/24 00:31:57;;;;;;;33.40;22.38;;;5.40;88.90;;;;;;2068699;28;20468;-81
2021/03/24 00:32:58;;;;;;;34.60;22.77;;;5.40;88.90;;;;;;2076467;28;20053;-80
2021/03/24 00:33:59;;;;;;;34.90;22.40;;;5.40;88.90;;;;;;2080439;28;20034;-81
2021/03/24 00:34:59;;;;;;;36.53;23.65;;;5.40;88.90;;;;;;2080250;28;20507;-81
2021/03/24 00:36:00;;;;;;;33.90;22.73;;;5.40;89.00;;;;;;2079317;28;20029;-80
2021/03/24 00:37:00;;;;;;;34.85;22.92;;;5.40;89.00;;;;;;2072116;28;20504;-80
2021/03/24 00:38:01;;;;;;;34.75;22.90;;;5.40;89.00;;;;;;2071977;28;20057;-80
2021/03/24 00:39:02;;;;;;;34.83;23.35;;;5.40;89.00;;;;;;2063844;28;20035;-81
2021/03/24 00:40:07;;;;;;;36.47;23.35;;;5.40;89.00;;;;;;2072610;28;20096;-80
2021/03/24 00:41:07;;;;;;;37.80;23.25;;;5.40;89.00;;;;;;2080442;28;20028;-81
2021/03/24 00:42:09;;;;;;;35.10;23.40;;;5.40;89.00;;;;;;2080580;28;20038;-80
2021/03/24 00:43:11;;;;;;;37.65;24.67;;;5.40;89.00;;;;;;2063491;28;20019;-80
2021/03/24 00:44:12;;;;;;;35.17;23.50;;;5.40;89.00;;;;;;2065170;28;20113;-81
2021/03/24 00:45:14;;;;;;;38.53;24.33;;;5.40;89.00;;;;;;2079995;28;20039;-81
2021/03/24 00:46:14;;;;;;;36.72;23.48;;;5.40;89.00;;;;;;2076684;28;20049;-81
2021/03/24 00:47:15;;;;;;;35.72;23.35;;;5.40;89.00;;;;;;2064044;28;20449;-80
2021/03/24 00:48:25;;;;;;;34.55;22.52;;;5.40;89.00;;;;;;2071501;28;20029;-80
2021/03/24 00:49:27;;;;;;;36.58;22.90;;;5.40;88.90;;;;;;2079949;28;20618;-80
2021/03/24 00:50:30;;;;;;;36.63;23.05;;;5.40;88.90;;;;;;2066864;28;20034;-80
2021/03/24 00:51:30;;;;;;;36.40;22.90;;;5.30;88.80;;;;;;2072582;28;20045;-80
2021/03/24 00:52:31;;;;;;;35.92;22.98;;;5.30;88.90;;;;;;2074218;28;20072;-80
2021/03/24 00:53:32;;;;;;;35.25;23.50;;;5.30;88.90;;;;;;2072347;28;20424;-81
2021/03/24 00:54:33;;;;;;;34.25;22.85;;;5.30;88.90;;;;;;2071890;28;20058;-81
2021/03/24 00:55:34;;;;;;;35.08;23.20;;;5.30;88.90;;;;;;2072832;28;20538;-80
2021/03/24 00:56:34;;;;;;;34.83;23.30;;;5.30;89.00;;;;;;2064233;28;20026;-80
2021/03/24 00:57:35;;;;;;;33.72;22.40;;;5.30;89.00;;;;;;2064374;28;20439;-81
2021/03/24 00:58:36;;;;;;;35.47;23.15;;;5.30;89.00;;;;;;2072945;28;20526;-81
2021/03/24 00:59:36;;;;;;;36.28;22.63;;;5.30;89.00;;;;;;2073257;28;20033;-80
2021/03/24 01:00:38;;;;;;;35.65;23.83;;;5.30;89.00;;;;;;2079812;28;20026;-80
2021/03/24 01:01:39;;;;;;;37.40;23.67;;;5.30;89.00;;;;;;2073455;28;20022;-80
2021/03/24 01:02:40;;;;;;;34.70;22.85;;;5.30;89.00;;;;;;2072740;28;20473;-80
2021/03/24 01:03:40;;;;;;;37.17;23.25;;;5.30;89.00;;;;;;2071598;28;20026;-80
2021/03/24 01:04:42;;;;;;;36.55;23.48;;;5.30;89.00;;;;;;2063418;28;20312;-81
2021/03/24 01:05:50;;;;;;;36.55;23.67;;;5.30;89.00;;;;;;2080513;28;20040;-81
2021/03/24 01:06:51;;;;;;;37.00;23.05;;;5.30;89.00;;;;;;2071554;28;20052;-80
2021/03/24 01:07:55;;;;;;;33.90;22.65;;;5.20;89.00;;;;;;2063548;28;20066;-80
2021/03/24 01:08:58;;;;;;;37.05;22.95;;;5.20;89.00;;;;;;2049074;28;20023;-80
2021/03/24 01:09:59;;;;;;;38.13;23.30;;;5.20;89.00;;;;;;2064370;28;20028;-81
2021/03/24 01:11:00;;;;;;;34.65;22.67;;;5.30;89.00;;;;;;2072508;28;20511;-81
2021/03/24 01:12:01;;;;;;;34.17;22.58;;;5.20;89.00;;;;;;2072711;28;20076;-81
2021/03/24 01:13:02;;;;;;;35.75;23.38;;;5.20;89.00;;;;;;2073708;28;20527;-80
2021/03/24 01:14:04;;;;;;;36.90;22.73;;;5.20;89.00;;;;;;2064222;28;20488;-80
2021/03/24 01:15:06;;;;;;;33.22;22.55;;;5.20;89.00;;;;;;2076175;28;20083;-81
2021/03/24 01:16:07;;;;;;;35.97;22.98;;;5.20;89.00;;;;;;2081809;28;20026;-81
2021/03/24 01:17:08;;;;;;;36.08;23.27;;;5.20;89.10;;;;;;2069107;28;20071;-81
2021/03/24 01:18:09;;;;;;;35.72;23.08;;;5.20;89.10;;;;;;2065483;28;20026;-81
2021/03/24 01:19:09;;;;;;;33.83;22.25;;;5.20;89.20;;;;;;2073684;28;20026;-81
2021/03/24 01:20:11;;;;;;;34.47;22.13;;;5.10;89.10;;;;;;2073357;28;20472;-80
2021/03/24 01:21:12;;;;;;;36.88;23.75;;;5.10;89.10;;;;;;2057323;28;20042;-81
2021/03/24 01:22:12;;;;;;;33.53;22.00;;;5.10;89.10;;;;;;2049719;28;20328;-80
2021/03/24 01:23:14;;;;;;;36.40;23.65;;;5.10;89.10;;;;;;2068739;28;20042;-81
2021/03/24 01:24:15;;;;;;;35.63;22.95;;;5.10;89.10;;;;;;2073804;28;20488;-81
2021/03/24 01:25:16;;;;;;;38.70;23.98;;;5.10;89.10;;;;;;2065154;28;20113;-81
2021/03/24 01:26:18;;;;;;;36.92;23.48;;;5.10;89.20;;;;;;2053720;28;20027;-81
2021/03/24 01:27:19;;;;;;;38.00;23.92;;;5.00;89.10;;;;;;2064014;28;20441;-80
2021/03/24 01:28:26;;;;;;;36.10;23.25;;;5.00;89.20;;;;;;2065140;28;20034;-80
2021/03/24 01:29:26;;;;;;;37.50;23.77;;;5.00;89.30;;;;;;2066647;28;20061;-80
2021/03/24 01:30:30;;;;;;;35.50;23.40;;;5.00;89.30;;;;;;2069203;28;20037;-80
2021/03/24 01:31:31;;;;;;;37.50;23.88;;;5.00;89.40;;;;;;2069920;28;20018;-80
2021/03/24 01:32:32;;;;;;;37.42;23.67;;;5.00;89.40;;;;;;2070689;28;20030;-81
2021/03/24 01:33:33;;;;;;;39.72;23.80;;;5.00;89.50;;;;;;2065483;28;20234;-81
2021/03/24 01:34:33;;;;;;;38.47;23.30;;;5.00;89.50;;;;;;2065574;28;20492;-80
2021/03/24 01:35:34;;;;;;;36.38;22.73;;;5.00;89.50;;;;;;2081551;28;20037;-81
2021/03/24 01:36:35;;;;;;;39.88;24.23;;;5.00;89.50;;;;;;2081339;28;20487;-80
2021/03/24 01:37:39;;;;;;;38.58;24.58;;;5.00;89.50;;;;;;2065166;28;20062;-81
2021/03/24 01:38:40;;;;;;;38.33;23.35;;;5.00;89.50;;;;;;2057496;28;20078;-81
2021/03/24 01:39:41;;;;;;;35.95;23.02;;;5.10;89.50;;;;;;2057680;28;20041;-81
2021/03/24 01:40:53;;;;;;;35.42;23.00;;;5.10;89.40;;;;;;2072994;28;20479;-81
2021/03/24 01:41:54;;;;;;;36.45;23.45;;;5.10;89.40;;;;;;2074893;28;20377;-81
2021/03/24 01:43:00;;;;;;;37.65;22.63;;;5.10;89.40;;;;;;2079954;28;20080;-81
2021/03/24 01:44:01;;;;;;;37.17;23.23;;;5.00;89.30;;;;;;2065504;28;20041;-81
2021/03/24 01:45:16;;;;;;;36.35;23.48;;;5.00;89.30;;;;;;2064891;28;20023;-81
2021/03/24 01:46:23;;;;;;;36.85;23.05;;;5.00;89.30;;;;;;2067068;28;20121;-81
2021/03/24 01:47:24;;;;;;;37.28;22.58;;;5.00;89.30;;;;;;2074343;28;20129;-81
2021/03/24 01:48:24;;;;;;;37.00;23.48;;;5.00;89.30;;;;;;2072845;28;20034;-81
2021/03/24 01:49:28;;;;;;;38.00;23.42;;;4.90;89.40;;;;;;2067396;28;20427;-80
2021/03/24 01:50:31;;;;;;;37.40;23.42;;;4.90;89.50;;;;;;2081379;28;20369;-81
2021/03/24 01:51:57;;;;;;;39.42;23.80;;;4.90;89.50;;;;;;2065293;28;20054;-81
2021/03/24 01:52:58;;;;;;;35.03;22.15;;;5.00;89.60;;;;;;2075044;28;20333;-81
2021/03/24 01:53:59;;;;;;;35.55;22.38;;;5.00;90.10;;;;;;2064342;28;20030;-80
2021/03/24 01:55:00;;;;;;;37.67;23.83;;;5.00;89.60;;;;;;2064719;28;20452;-81
2021/03/24 01:56:01;;;;;;;38.55;23.95;;;5.00;89.60;;;;;;2057276;28;20090;-81
2021/03/24 01:57:06;;;;;;;39.63;24.45;;;5.00;89.60;;;;;;2065062;28;20094;-81
2021/03/24 01:58:07;;;;;;;36.50;22.90;;;5.00;89.70;;;;;;2073606;28;20158;-80
2021/03/24 01:59:08;;;;;;;39.08;24.95;;;5.00;89.70;;;;;;2073060;28;20026;-81
2021/03/24 02:00:16;;;;;;;38.22;24.23;;;4.90;89.60;;;;;;2065461;28;20062;-81
2021/03/24 02:01:18;;;;;;;37.40;23.10;;;4.90;89.70;;;;;;2066038;28;20042;-81
2021/03/24 02:02:21;;;;;;;38.17;22.77;;;4.90;89.70;;;;;;2071943;28;20025;-81
2021/03/24 02:03:26;;;;;;;38.33;23.55;;;5.00;89.80;;;;;;2070109;28;20022;-81
2021/03/24 02:04:27;;;;;;;36.50;23.23;;;4.90;89.70;;;;;;2081976;28;20049;-81
2021/03/24 02:05:28;;;;;;;36.13;22.83;;;5.00;89.70;;;;;;2065553;28;20055;-81
2021/03/24 02:06:47;;;;;;;38.85;23.55;;;4.90;90.10;;;;;;2057292;28;20505;-81
2021/03/24 02:07:57;;;;;;;36.65;22.80;;;4.90;89.60;;;;;;2075641;28;20029;-81
2021/03/24 02:09:16;;;;;;;36.83;22.53;;;4.90;89.60;;;;;;2080646;28;20025;-80
2021/03/24 02:10:34;;;;;;;38.53;23.60;;;4.90;89.60;;;;;;2072098;28;20782;-81
2021/03/24 02:11:38;;;;;;;36.75;22.20;;;4.90;89.60;;;;;;2067582;28;20057;-81
2021/03/24 02:12:46;;;;;;;36.30;22.20;;;4.90;89.60;;;;;;2073431;28;20025;-81
2021/03/24 02:14:07;;;;;;;36.83;22.98;;;4.90;89.60;;;;;;2081867;28;20167;-81
2021/03/24 02:15:22;;;;;;;35.53;21.63;;;4.80;89.60;;;;;;2080757;28;20365;-81
2021/03/24 02:16:29;;;;;;;35.53;22.55;;;4.90;89.70;;;;;;2082454;28;20120;-81
2021/03/24 02:17:34;;;;;;;35.05;21.90;;;4.80;89.70;;;;;;2081209;28;20028;-81
2021/03/24 02:18:37;;;;;;;37.67;22.27;;;4.80;89.80;;;;;;2072927;28;20053;-81
2021/03/24 02:19:46;;;;;;;35.80;22.58;;;4.80;89.80;;;;;;2072792;28;20092;-80
2021/03/24 02:21:08;;;;;;;36.97;22.40;;;4.80;89.90;;;;;;2073169;28;20124;-81
2021/03/24 02:22:10;;;;;;;35.03;21.60;;;4.80;89.90;;;;;;2075705;28;20033;-81
2021/03/24 02:23:43;;;;;;;36.28;22.25;;;4.80;89.80;;;;;;2080713;28;20018;-81
2021/03/24 02:24:55;;;;;;;39.25;22.20;;;4.80;89.80;;;;;;2075641;28;20495;-81
2021/03/24 02:26:04;;;;;;;34.13;21.33;;;4.80;89.80;;;;;;2079500;28;20029;-80
2021/03/24 02:27:11;;;;;;;36.67;21.77;;;4.70;89.70;;;;;;2065024;28;20118;-81
2021/03/24 02:28:13;;;;;;;35.50;21.88;;;4.70;89.80;;;;;;2072963;28;20489;-80
2021/03/24 02:29:20;;;;;;;35.30;21.83;;;4.70;89.80;;;;;;2065040;28;20034;-80
2021/03/24 02:30:30;;;;;;;38.00;21.95;;;4.70;89.80;;;;;;2068357;28;20030;-81
2021/03/24 02:31:33;;;;;;;36.67;22.80;;;4.70;89.80;;;;;;2081476;28;20036;-80
2021/03/24 02:32:38;;;;;;;36.15;21.67;;;4.70;89.90;;;;;;2065051;28;20065;-80
2021/03/24 02:33:41;;;;;;;37.83;23.20;;;4.70;89.90;;;;;;2069053;28;20038;-80
2021/03/24 02:34:44;;;;;;;40.65;24.42;;;4.70;89.90;;;;;;2081273;28;20112;-81
2021/03/24 02:35:48;;;;;;;38.97;23.55;;;4.70;90.00;;;;;;2072164;28;20018;-81
2021/03/24 02:36:53;;;;;;;38.10;23.13;;;4.60;89.90;;;;;;2066197;28;20378;-81
2021/03/24 02:37:55;;;;;;;36.08;22.42;;;4.60;90.00;;;;;;2079280;28;20699;-80
2021/03/24 02:39:00;;;;;;;37.50;23.25;;;4.60;90.00;;;;;;2081422;28;20399;-81
2021/03/24 02:40:05;;;;;;;37.95;22.88;;;4.60;90.00;;;;;;2081883;28;20028;-81
2021/03/24 02:41:07;;;;;;;35.63;21.80;;;4.60;90.00;;;;;;2065320;28;20076;-81
2021/03/24 02:42:11;;;;;;;37.40;23.70;;;4.60;90.00;;;;;;2065129;28;20558;-81
2021/03/24 02:43:13;;;;;;;35.30;22.38;;;4.60;90.00;;;;;;2066247;28;20038;-80
2021/03/24 02:44:14;;;;;;;41.20;24.48;;;4.60;90.30;;;;;;2072710;28;20120;-81
2021/03/24 02:45:19;;;;;;;40.22;24.75;;;4.60;90.00;;;;;;2066394;28;20080;-81
2021/03/24 02:46:21;;;;;;;38.28;23.17;;;4.60;90.00;;;;;;2066039;28;20022;-81
2021/03/24 02:47:23;;;;;;;39.88;24.00;;;4.60;90.10;;;;;;2072853;28;20114;-81
2021/03/24 02:48:30;;;;;;;38.30;23.58;;;4.60;90.10;;;;;;2072979;28;20014;-81
2021/03/24 02:49:32;;;;;;;37.88;22.92;;;4.60;90.10;;;;;;2086412;28;20487;-81
2021/03/24 02:50:34;;;;;;;38.70;22.92;;;4.50;90.10;;;;;;2078530;28;20448;-81
2021/03/24 02:51:38;;;;;;;41.38;23.73;;;4.50;90.10;;;;;;2073822;28;20040;-82
2021/03/24 02:52:39;;;;;;;37.85;23.20;;;4.50;90.40;;;;;;2073811;28;20038;-81
2021/03/24 02:53:41;;;;;;;41.00;24.23;;;4.50;90.10;;;;;;2077809;28;20184;-80
2021/03/24 02:54:44;;;;;;;38.53;23.85;;;4.60;90.20;;;;;;2064926;28;20404;-81
2021/03/24 02:55:45;;;;;;;38.33;23.58;;;4.50;90.20;;;;;;2061478;28;20026;-81
2021/03/24 02:56:46;;;;;;;39.00;22.77;;;4.50;90.20;;;;;;2073405;28;20030;-80
2021/03/24 02:57:47;;;;;;;39.00;23.67;;;4.50;90.20;;;;;;2063911;28;20053;-81
2021/03/24 02:58:51;;;;;;;38.05;23.33;;;4.50;90.20;;;;;;2065137;28;20566;-81
2021/03/24 02:59:52;;;;;;;39.63;24.05;;;4.50;90.50;;;;;;2072942;28;20029;-80
2021/03/24 03:00:53;;;;;;;41.08;23.50;;;4.50;90.20;;;;;;2064825;28;20034;-80
2021/03/24 03:02:07;;;;;;;39.00;24.13;;;4.50;90.20;;;;;;2057360;28;20027;-81
2021/03/24 03:03:13;;;;;;;36.85;23.30;;;4.60;90.20;;;;;;2066622;28;20035;-80
2021/03/24 03:04:43;;;;;;;37.92;22.98;;;4.50;90.10;;;;;;2067060;28;20026;-82
2021/03/24 03:05:45;;;;;;;38.22;22.65;;;4.60;90.10;;;;;;2070553;28;20049;-81
2021/03/24 03:06:47;;;;;;;40.58;23.33;;;4.50;90.10;;;;;;2073822;28;20360;-81
2021/03/24 03:07:56;;;;;;;39.78;23.63;;;4.50;90.10;;;;;;2066022;28;20403;-80
2021/03/24 03:09:08;;;;;;;39.92;22.92;;;4.50;90.10;;;;;;2067155;28;20504;-80
2021/03/24 03:10:20;;;;;;;38.05;23.05;;;4.50;90.10;;;;;;2067565;28;20069;-81
2021/03/24 03:11:46;;;;;;;39.20;22.33;;;4.50;90.10;;;;;;2080694;28;20112;-81
2021/03/24 03:12:59;;;;;;;38.03;22.90;;;4.50;90.10;;;;;;2081467;28;20024;-81
2021/03/24 03:14:27;;;;;;;38.63;22.73;;;4.50;90.10;;;;;;2073638;28;20072;-81
2021/03/24 03:15:37;;;;;;;36.95;21.52;;;4.50;90.10;;;;;;2079975;28;20025;-81
2021/03/24 03:16:43;;;;;;;38.67;22.90;;;4.50;90.10;;;;;;2075436;28;20030;-81
2021/03/24 03:17:54;;;;;;;36.28;22.00;;;4.50;90.10;;;;;;2074622;28;20033;-80
2021/03/24 03:19:18;;;;;;;38.70;22.65;;;4.50;90.10;;;;;;2081108;28;20125;-80
2021/03/24 03:20:35;;;;;;;34.83;21.55;;;4.50;90.10;;;;;;2081328;28;20021;-80
2021/03/24 03:21:43;;;;;;;35.13;21.15;;;4.50;90.10;;;;;;2079488;28;20017;-81
2021/03/24 03:22:47;;;;;;;37.10;22.25;;;4.50;90.10;;;;;;2080816;28;20033;-80
2021/03/24 03:23:49;;;;;;;40.38;22.60;;;4.50;90.10;;;;;;2088325;28;20056;-81
2021/03/24 03:25:01;;;;;;;36.70;22.65;;;4.50;90.10;;;;;;2075526;28;20104;-81
2021/03/24 03:26:09;;;;;;;38.42;22.08;;;4.50;90.20;;;;;;2080334;28;20120;-81
2021/03/24 03:27:13;;;;;;;39.67;23.77;;;4.50;90.20;;;;;;2073437;28;20030;-81
2021/03/24 03:28:17;;;;;;;38.40;22.77;;;4.50;90.20;;;;;;2073112;28;20029;-81
2021/03/24 03:29:20;;;;;;;38.88;22.77;;;4.50;90.20;;;;;;2069809;28;20021;-81
2021/03/24 03:30:25;;;;;;;39.00;22.45;;;4.50;90.50;;;;;;2057914;28;20034;-81
2021/03/24 03:31:31;;;;;;;43.08;23.77;;;4.50;90.20;;;;;;2065966;28;20395;-81
2021/03/24 03:32:32;;;;;;;39.03;22.80;;;4.50;90.20;;;;;;2069048;28;20037;-81
2021/03/24 03:33:36;;;;;;;41.55;24.92;;;4.50;90.20;;;;;;2072610;28;20033;-81
2021/03/24 03:34:40;;;;;;;40.92;24.05;;;4.50;90.20;;;;;;2079631;28;20114;-80
2021/03/24 03:35:41;;;;;;;41.65;24.15;;;4.50;90.20;;;;;;2080843;28;20116;-81
2021/03/24 03:36:46;;;;;;;42.15;24.23;;;4.50;90.30;;;;;;2080642;28;20581;-81
2021/03/24 03:37:50;;;;;;;41.38;24.58;;;4.50;90.30;;;;;;2081975;28;20047;-80
2021/03/24 03:38:55;;;;;;;42.58;24.83;;;4.50;90.30;;;;;;2080347;28;20479;-80
2021/03/24 03:39:57;;;;;;;41.78;24.50;;;4.50;90.30;;;;;;2079968;28;20037;-80
2021/03/24 03:41:01;;;;;;;39.63;23.80;;;4.50;90.30;;;;;;2072194;28;20045;-81
2021/03/24 03:42:04;;;;;;;40.60;23.88;;;4.50;90.30;;;;;;2073025;28;20377;-81
2021/03/24 03:43:08;;;;;;;41.38;24.02;;;4.50;90.30;;;;;;2071587;28;20506;-81
2021/03/24 03:44:10;;;;;;;41.45;24.95;;;4.50;90.30;;;;;;2071090;28;20044;-81
2021/03/24 03:45:12;;;;;;;40.85;24.80;;;4.50;90.30;;;;;;2079439;28;20459;-80
2021/03/24 03:46:17;;;;;;;40.70;23.95;;;4.50;90.30;;;;;;2080766;28;20037;-81
2021/03/24 03:47:18;;;;;;;38.67;23.55;;;4.50;90.30;;;;;;2074165;28;20022;-81
2021/03/24 03:48:21;;;;;;;39.50;24.40;;;4.50;90.30;;;;;;2076099;28;20033;-81
2021/03/24 03:49:22;;;;;;;41.92;24.88;;;4.50;90.30;;;;;;2068765;28;20038;-81
2021/03/24 03:50:26;;;;;;;41.03;24.25;;;4.50;90.30;;;;;;2064539;28;20138;-81
2021/03/24 03:52:12;;;;;;;41.95;24.23;;;4.50;90.30;;;;;;2072302;28;20080;-81
2021/03/24 03:53:24;;;;;;;39.22;22.63;;;4.50;90.30;;;;;;2050047;28;20059;-81
2021/03/24 03:54:35;;;;;;;42.10;23.52;;;4.50;90.30;;;;;;2049888;28;20563;-81
2021/03/24 03:55:41;;;;;;;38.50;22.75;;;4.50;90.20;;;;;;2067588;28;20093;-81
2021/03/24 03:56:57;;;;;;;37.95;23.20;;;4.50;90.20;;;;;;2071993;28;20026;-81
2021/03/24 03:58:30;;;;;;;38.72;22.70;;;4.50;90.20;;;;;;2073705;28;20026;-80
2021/03/24 03:59:56;;;;;;;37.20;21.42;;;4.50;90.50;;;;;;2064724;28;20039;-81
2021/03/24 04:01:19;;;;;;;36.92;22.20;;;4.40;90.20;;;;;;2064315;28;20069;-80
2021/03/24 04:02:31;;;;;;;39.42;22.40;;;4.40;90.20;;;;;;2073063;28;20396;-81
2021/03/24 04:03:56;;;;;;;39.20;22.35;;;4.40;90.20;;;;;;2072434;28;20121;-81
2021/03/24 04:05:04;;;;;;;36.22;21.67;;;4.40;90.20;;;;;;2078351;28;20029;-80
2021/03/24 04:06:10;;;;;;;37.35;22.27;;;4.40;90.20;;;;;;2065479;28;20038;-81
2021/03/24 04:07:59;;;;;;;39.17;22.35;;;4.30;90.20;;;;;;2065943;28;20089;-80
2021/03/24 04:09:00;;;;;;;36.63;21.77;;;4.30;90.20;;;;;;2032348;29;20036;-81
2021/03/24 04:10:03;;;;;;;37.65;21.75;;;4.30;90.20;;;;;;2024373;29;20132;-80
2021/03/24 04:11:08;;;;;;;37.78;21.73;;;4.30;90.20;;;;;;2024843;29;20037;-80
2021/03/24 04:12:14;;;;;;;37.13;22.08;;;4.30;90.20;;;;;;2032296;29;20039;-81
2021/03/24 04:13:16;;;;;;;34.92;21.45;;;4.30;90.30;;;;;;2035786;29;20032;-80
2021/03/24 04:14:22;;;;;;;36.53;22.25;;;4.30;90.30;;;;;;2052103;28;20091;-81
2021/03/24 04:15:24;;;;;;;37.85;23.10;;;4.30;90.30;;;;;;2069906;28;20022;-80
2021/03/24 04:16:26;;;;;;;37.20;22.05;;;4.30;90.30;;;;;;2072336;28;20396;-81
2021/03/24 04:17:35;;;;;;;36.22;22.10;;;4.30;90.30;;;;;;2083155;28;20458;-80
2021/03/24 04:18:45;;;;;;;36.53;22.10;;;4.30;90.30;;;;;;2083314;28;20030;-80
2021/03/24 04:19:49;;;;;;;36.75;20.80;;;4.30;90.30;;;;;;2080240;28;20034;-81
2021/03/24 04:20:52;;;;;;;38.40;22.33;;;4.20;90.30;;;;;;2080798;28;20032;-81
2021/03/24 04:21:58;;;;;;;36.38;22.55;;;4.30;90.40;;;;;;2076072;28;20452;-81
2021/03/24 04:23:02;;;;;;;37.40;21.52;;;4.20;90.30;;;;;;2073088;28;20431;-81
2021/03/24 04:24:13;;;;;;;38.33;22.67;;;4.20;90.30;;;;;;2072173;28;20503;-80
2021/03/24 04:25:21;;;;;;;38.45;21.98;;;4.30;90.40;;;;;;2064404;28;20065;-80
2021/03/24 04:26:26;;;;;;;38.47;21.90;;;4.20;90.40;;;;;;2069722;28;20013;-80
2021/03/24 04:27:34;;;;;;;40.28;22.10;;;4.20;90.40;;;;;;2079052;28;20072;-81
2021/03/24 04:28:38;;;;;;;36.05;21.05;;;4.20;90.40;;;;;;2076469;28;20028;-81
2021/03/24 04:29:53;;;;;;;37.40;22.60;;;4.20;90.40;;;;;;2072322;28;20033;-81
2021/03/24 04:30:59;;;;;;;39.88;22.27;;;4.20;90.40;;;;;;2076160;28;20025;-81
2021/03/24 04:32:02;;;;;;;36.40;22.42;;;4.20;90.40;;;;;;2079916;28;20508;-80
2021/03/24 04:33:03;;;;;;;38.75;22.48;;;4.20;90.40;;;;;;2063110;28;20118;-80
2021/03/24 04:34:04;;;;;;;34.20;21.40;;;4.20;90.40;;;;;;2063716;28;20485;-81
2021/03/24 04:35:07;;;;;;;36.10;21.88;;;4.20;90.40;;;;;;2072695;28;20026;-80
2021/03/24 04:36:22;;;;;;;41.35;24.15;;;4.20;90.40;;;;;;2067905;28;20033;-80
2021/03/24 04:37:37;;;;;;;35.55;21.27;;;4.20;90.40;;;;;;2074875;28;20025;-81
2021/03/24 04:38:49;;;;;;;39.40;22.50;;;4.20;90.40;;;;;;2079969;28;20121;-82
2021/03/24 04:39:56;;;;;;;36.25;20.45;;;4.10;90.40;;;;;;2081595;28;20215;-82
2021/03/24 04:41:01;;;;;;;39.45;22.67;;;4.10;90.40;;;;;;2080350;28;20116;-81
2021/03/24 04:42:08;;;;;;;39.40;22.45;;;4.10;90.40;;;;;;2058461;28;20027;-81
2021/03/24 04:43:14;;;;;;;41.35;22.63;;;4.10;90.50;;;;;;2067886;28;20069;-80
2021/03/24 04:44:26;;;;;;;37.45;22.20;;;4.10;90.50;;;;;;2064338;28;20023;-81
2021/03/24 04:45:46;;;;;;;37.45;21.90;;;4.10;90.50;;;;;;2073705;28;20026;-81
2021/03/24 04:46:51;;;;;;;38.33;21.13;;;4.10;90.50;;;;;;2078020;28;20057;-81
2021/03/24 04:47:55;;;;;;;36.92;21.70;;;4.10;90.40;;;;;;2077359;28;20045;-81
2021/03/24 04:49:12;;;;;;;37.97;22.63;;;4.10;90.40;;;;;;2080721;28;20506;-81
2021/03/24 04:50:22;;;;;;;37.72;22.02;;;4.10;90.40;;;;;;2080824;28;20033;-82
2021/03/24 04:51:27;;;;;;;39.65;22.92;;;4.10;90.40;;;;;;2080564;28;20577;-81
2021/03/24 04:52:32;;;;;;;35.95;21.20;;;4.10;90.70;;;;;;2064790;28;20129;-81
2021/03/24 04:53:42;;;;;;;36.88;22.67;;;4.10;90.40;;;;;;2075288;28;20026;-81
2021/03/24 04:54:45;;;;;;;37.30;21.55;;;4.10;90.40;;;;;;2083314;28;20046;-81
2021/03/24 04:55:47;;;;;;;38.90;23.02;;;4.10;90.40;;;;;;2073807;28;20124;-81
2021/03/24 04:56:55;;;;;;;42.40;24.02;;;4.00;90.40;;;;;;2070755;28;20382;-81
2021/03/24 04:57:58;;;;;;;39.10;22.77;;;4.10;90.50;;;;;;2072198;28;20037;-81
2021/03/24 04:58:59;;;;;;;38.55;23.23;;;4.00;90.50;;;;;;2060907;28;20022;-81
2021/03/24 05:00:37;;;;;;;38.72;23.65;;;4.00;90.50;;;;;;2060505;28;20038;-81
2021/03/24 05:01:44;;;;;;;39.47;22.67;;;4.10;90.50;;;;;;2062660;28;20431;-81
2021/03/24 05:02:56;;;;;;;35.92;21.30;;;4.10;90.50;;;;;;2072587;28;20102;-81
2021/03/24 05:04:04;;;;;;;40.15;23.08;;;4.10;90.50;;;;;;2081825;28;20236;-81
2021/03/24 05:05:17;;;;;;;34.88;21.83;;;4.10;90.50;;;;;;2082418;28;20052;-81
2021/03/24 05:06:30;;;;;;;40.08;22.70;;;4.10;90.40;;;;;;2090256;28;20064;-81
2021/03/24 05:07:41;;;;;;;39.28;22.42;;;4.10;90.40;;;;;;2077354;28;20026;-80
2021/03/24 05:08:44;;;;;;;40.95;22.83;;;4.10;90.40;;;;;;2076840;28;20038;-81
2021/03/24 05:09:46;;;;;;;40.47;22.83;;;4.00;90.40;;;;;;2065403;28;20098;-80
2021/03/24 05:10:48;;;;;;;40.00;23.38;;;4.00;90.40;;;;;;2073720;28;20025;-81
2021/03/24 05:12:11;;;;;;;40.55;23.50;;;4.00;90.40;;;;;;2090265;28;20498;-81
2021/03/24 05:13:23;;;;;;;36.15;22.05;;;4.00;90.40;;;;;;2072586;28;20129;-81
2021/03/24 05:14:32;;;;;;;39.35;23.17;;;4.00;90.40;;;;;;2071596;28;20030;-81
2021/03/24 05:15:41;;;;;;;37.65;22.02;;;4.00;90.40;;;;;;2082498;28;20031;-81
2021/03/24 05:16:47;;;;;;;36.65;21.92;;;4.00;90.40;;;;;;2081589;28;20056;-81
2021/03/24 05:17:48;;;;;;;37.05;21.65;;;4.00;90.50;;;;;;2081244;28;20025;-81
2021/03/24 05:18:56;;;;;;;37.22;22.20;;;4.00;90.40;;;;;;2070538;28;20744;-81
2021/03/24 05:20:20;;;;;;;37.00;22.83;;;4.00;90.50;;;;;;2073460;28;20033;-80
2021/03/24 05:21:46;;;;;;;37.45;20.98;;;4.00;90.40;;;;;;2075670;28;20021;-81
2021/03/24 05:22:48;;;;;;;36.08;21.10;;;4.00;90.40;;;;;;2074363;28;20036;-81
2021/03/24 05:23:55;;;;;;;37.08;22.15;;;4.00;90.40;;;;;;2073592;28;20034;-81
2021/03/24 05:25:00;;;;;;;38.50;22.52;;;4.00;90.40;;;;;;2073951;28;20029;-81
2021/03/24 05:26:08;;;;;;;38.63;22.30;;;4.00;90.40;;;;;;2073368;28;20120;-81
2021/03/24 05:27:29;;;;;;;36.60;22.38;;;4.00;90.50;;;;;;2073169;28;20547;-81
2021/03/24 05:28:42;;;;;;;37.92;22.73;;;4.00;90.40;;;;;;2072455;28;20041;-81
2021/03/24 05:29:50;;;;;;;38.45;21.90;;;4.00;90.40;;;;;;2073046;28;20034;-81
2021/03/24 05:30:54;;;;;;;38.08;22.13;;;4.00;90.40;;;;;;2081473;28;20018;-80
2021/03/24 05:31:57;;;;;;;34.53;21.58;;;4.00;90.40;;;;;;2078446;28;20017;-80
2021/03/24 05:33:14;;;;;;;37.28;22.17;;;4.00;90.40;;;;;;2081180;28;20021;-81
2021/03/24 05:34:20;;;;;;;35.03;21.33;;;4.00;90.40;;;;;;2085075;28;20037;-81
2021/03/24 05:35:37;;;;;;;36.50;22.08;;;4.00;90.40;;;;;;2079718;28;20029;-81
2021/03/24 05:36:47;;;;;;;35.55;21.88;;;4.00;90.40;;;;;;2073462;28;20484;-81
2021/03/24 05:37:48;;;;;;;36.75;23.08;;;4.00;90.40;;;;;;2079839;28;20112;-81